Aérodrome :
LOGIN :

S'inscrire | Disclaimer

   EN    FR    IT 

 










Légende :    VFR   VFR Marginal   IFR   IFR Intensif   IFR Très Intensif
Visi : 
Plafond : 
>= 8 km
>= 3000ft
5 à 8 km
1000 à 3000 ft
1500m à 5 km
500 à 1000 ft
800 à 1500m
200 à 500 ft
< 800m
< 200 ft
Symboles :   Orages  Brouillard  Fortes neiges  Fortes précipitations  Vent > 20 kt
SIGMETs :   Divers  Orages  Givrage  Turbulence  Onde Orograph.  Cendres Volcan.






- Altitude de l'aérodrome : 24 ft
- Code IATA : FAO


LPFR - Faro

DERNIER METAR :
  • 151430Z 21006KT 170V230 9999 FEW018 19/10 Q1022

METARs EXPIRÉS :
  • 151400Z 19007KT 160V220 9999 FEW018 19/10 Q1022
  • 151330Z 19007KT 160V230 9999 FEW013 19/09 Q1022
  • 151300Z 19007KT 150V210 9999 FEW013 19/09 Q1023
  • 151230Z 18007KT 9999 FEW010 19/09 Q1023
  • 151200Z 20008KT 9999 FEW010 19/09 Q1023

TAF TAF LPFR
Valide du 15 à 12h jusqu'au 16 à 12h UTC


151100Z 1512/1612 21010KT CAVOK
BECMG 1515/1517 26012KT
BECMG 1519/1521 32008KT
BECMG 1600/1603 VRB03KT
BECMG 1609/1611 21010KT



MET'MAP, la Météo Aéronautique d'un coup d'oeil ! - Copyright ORBIFLY Décembre 2007 - Disclaimer

ORBIFLY MET'MAP TEAM :

Programmation & Développement : Alexandra Zaïnal
Conception & Développement : Baudouin d'Aumeries
Co-Programmation & Développement : Marc-Olivier Méhu
Soutien technique & logistique : Manuel Goepfert

Contact : metmap@orbifly.com




SOURCES & CREDITS :

   NOAA